Time;durP1;ratioP1;P1;durP2;ratioP2;P2;SDS_P1;SDS_P2;PMS_P1;PMS_P2;Temp;Humidity;BMP_temperature;BMP_pressure;BME280_temperature;BME280_humidity;BME280_pressure;Samples;Min_cycle;Max_cycle;Signal;HPM_P1;HPM_P2
2023/11/25 00:00:10;;;;;;;1.40;0.80;;;;;;;0.76;100.00;99831.78;5006434;28;20210;-84
2023/11/25 00:02:36;;;;;;;2.77;0.97;;;;;;;0.74;100.00;99838.84;5008584;28;20313;-83
2023/11/25 00:05:04;;;;;;;3.30;1.00;;;;;;;0.71;100.00;99836.34;5014513;28;20325;-83
2023/11/25 00:07:32;;;;;;;1.37;0.70;;;;;;;0.71;100.00;99838.97;5012052;28;20238;-85
2023/11/25 00:09:59;;;;;;;2.60;0.77;;;;;;;0.67;100.00;99845.22;5012455;28;20812;-83
2023/11/25 00:12:26;;;;;;;2.73;1.03;;;;;;;0.68;100.00;99853.03;5012165;28;20225;-82
2023/11/25 00:14:52;;;;;;;2.63;0.70;;;;;;;0.65;100.00;99852.28;5010655;28;20210;-83
2023/11/25 00:17:22;;;;;;;4.43;1.17;;;;;;;0.62;99.56;99857.63;5012716;28;20227;-83
2023/11/25 00:19:48;;;;;;;2.90;0.70;;;;;;;0.62;99.49;99865.50;5008859;28;20226;-83
2023/11/25 00:22:15;;;;;;;4.37;0.80;;;;;;;0.60;99.54;99878.66;5013139;28;20211;-83
2023/11/25 00:24:41;;;;;;;4.83;0.73;;;;;;;0.57;99.47;99870.03;5004982;28;20203;-83
2023/11/25 00:27:08;;;;;;;3.13;0.60;;;;;;;0.56;99.70;99878.81;5009428;28;20239;-83
2023/11/25 00:29:34;;;;;;;2.03;0.90;;;;;;;0.54;99.57;99883.22;5003202;28;20208;-83
2023/11/25 00:32:02;;;;;;;5.43;0.70;;;;;;;0.51;99.21;99892.09;5010718;28;20659;-83
2023/11/25 00:34:29;;;;;;;3.53;1.47;;;;;;;0.52;99.29;99913.91;5010909;28;20663;-83
2023/11/25 00:36:56;;;;;;;1.17;0.50;;;;;;;0.52;98.60;99924.38;5009511;28;20226;-82
2023/11/25 00:39:23;;;;;;;2.30;0.60;;;;;;;0.50;98.67;99918.34;5010103;28;20218;-82
2023/11/25 00:41:50;;;;;;;4.03;0.80;;;;;;;0.50;98.36;99936.66;5012137;28;20808;-82
2023/11/25 00:44:16;;;;;;;4.03;0.80;;;;;;;0.48;98.83;99934.09;5010242;28;20675;-82
2023/11/25 00:46:43;;;;;;;2.10;0.70;;;;;;;0.48;97.99;99944.56;5009566;28;20550;-83
2023/11/25 00:49:11;;;;;;;3.57;0.97;;;;;;;0.48;98.09;99939.34;5010189;28;20211;-82
2023/11/25 00:51:38;;;;;;;2.83;0.70;;;;;;;0.48;97.69;99933.25;5007630;28;20295;-82
2023/11/25 00:54:05;;;;;;;4.13;1.00;;;;;;;0.46;97.54;99922.81;5006753;28;20206;-83
2023/11/25 00:56:32;;;;;;;2.63;0.93;;;;;;;0.45;97.34;99925.47;5004617;28;20587;-82
2023/11/25 00:58:58;;;;;;;1.63;0.57;;;;;;;0.44;97.26;99923.75;5009049;28;20233;-82
2023/11/25 01:01:25;;;;;;;5.70;1.20;;;;;;;0.43;97.61;99938.63;5008479;28;20207;-82
2023/11/25 01:03:52;;;;;;;2.53;0.80;;;;;;;0.43;97.09;99946.47;5006441;28;20204;-83
2023/11/25 01:06:18;;;;;;;5.97;0.90;;;;;;;0.45;97.15;99960.41;5003452;28;20235;-82
2023/11/25 01:08:46;;;;;;;3.57;0.90;;;;;;;0.44;97.69;99958.69;5003650;28;20230;-82
2023/11/25 01:11:13;;;;;;;2.13;0.90;;;;;;;0.43;97.47;99956.97;5005617;28;20604;-82
2023/11/25 01:13:39;;;;;;;2.77;0.87;;;;;;;0.44;97.46;99973.53;5009506;28;20762;-82
2023/11/25 01:16:16;;;;;;;3.63;0.90;;;;;;;0.45;97.14;99975.25;5011978;28;20711;-82
2023/11/25 01:18:42;;;;;;;6.10;1.03;;;;;;;0.45;97.39;99970.00;5005100;28;20249;-82
2023/11/25 01:21:09;;;;;;;5.33;1.10;;;;;;;0.43;97.62;99967.44;5008574;28;20845;-82
2023/11/25 01:23:35;;;;;;;2.23;0.70;;;;;;;0.43;97.74;99964.81;5007535;28;20220;-82
2023/11/25 01:26:04;;;;;;;6.77;0.90;;;;;;;0.45;97.99;99970.88;5008551;28;20619;-82
2023/11/25 01:28:30;;;;;;;4.27;0.90;;;;;;;0.44;97.34;99958.69;5009361;28;20706;-82
2023/11/25 01:30:57;;;;;;;3.20;1.07;;;;;;;0.42;97.50;99975.34;5010269;28;20227;-82
2023/11/25 01:33:23;;;;;;;3.83;0.80;;;;;;;0.39;98.04;99971.06;5007389;28;20218;-82
2023/11/25 01:35:50;;;;;;;3.57;1.00;;;;;;;0.39;97.66;99973.69;5013341;28;20648;-81
2023/11/25 01:38:16;;;;;;;5.10;0.90;;;;;;;0.38;97.73;99978.97;5008139;28;20234;-82
2023/11/25 01:40:43;;;;;;;5.77;0.90;;;;;;;0.33;97.50;99976.53;5006375;28;20200;-82
2023/11/25 01:43:14;;;;;;;3.43;0.80;;;;;;;0.31;97.92;99989.66;5013298;28;20199;-82
2023/11/25 01:45:40;;;;;;;4.47;0.90;;;;;;;0.30;98.13;99977.47;5010439;28;20253;-82
2023/11/25 01:48:07;;;;;;;3.77;0.90;;;;;;;0.30;98.15;99987.94;5012513;28;20236;-83
2023/11/25 01:50:36;;;;;;;4.00;1.47;;;;;;;0.28;98.04;99987.13;5010238;28;20223;-82
2023/11/25 01:53:04;;;;;;;6.00;1.20;;;;;;;0.30;97.96;99998.41;5006458;28;20210;-83
2023/11/25 01:55:32;;;;;;;7.43;1.00;;;;;;;0.28;98.53;99989.75;5012343;28;20563;-82
2023/11/25 01:57:59;;;;;;;3.17;0.60;;;;;;;0.31;98.19;99987.03;5011894;28;20222;-83
2023/11/25 02:00:28;;;;;;;3.50;1.17;;;;;;;0.30;98.12;99976.63;5008153;28;20308;-82
2023/11/25 02:02:57;;;;;;;3.87;1.00;;;;;;;0.32;97.64;99974.81;5013717;28;20217;-82
2023/11/25 02:05:24;;;;;;;4.83;0.80;;;;;;;0.33;97.47;99966.03;5012771;28;20207;-82
2023/11/25 02:07:51;;;;;;;1.93;0.90;;;;;;;0.36;96.91;99971.16;5015112;28;20286;-82
2023/11/25 02:10:19;;;;;;;4.50;0.97;;;;;;;0.38;96.72;99964.09;5011131;28;20237;-82
2023/11/25 02:12:46;;;;;;;4.13;1.10;;;;;;;0.40;96.49;99959.69;5012604;28;20626;-82
2023/11/25 02:15:14;;;;;;;3.20;0.83;;;;;;;0.41;96.35;99963.16;5010214;28;20203;-81
2023/11/25 02:17:44;;;;;;;2.20;0.80;;;;;;;0.42;96.28;99963.09;5013645;28;20218;-82
2023/11/25 02:20:13;;;;;;;1.57;0.70;;;;;;;0.42;96.28;99968.34;5010864;28;20203;-81
2023/11/25 02:22:40;;;;;;;6.43;0.80;;;;;;;0.45;96.16;99967.38;5017540;28;20202;-82
2023/11/25 02:25:09;;;;;;;5.93;1.13;;;;;;;0.47;96.28;99965.59;5010718;28;20261;-82
2023/11/25 02:27:35;;;;;;;4.87;1.00;;;;;;;0.48;95.62;99970.78;5013302;28;20218;-81
2023/11/25 02:30:05;;;;;;;7.93;0.97;;;;;;;0.47;95.39;99966.44;5010789;28;21553;-82
2023/11/25 02:32:33;;;;;;;5.73;0.77;;;;;;;0.47;95.29;99960.34;5014566;28;20265;-82
2023/11/25 02:35:00;;;;;;;4.27;0.77;;;;;;;0.46;95.68;99961.25;5006687;28;20273;-82
2023/11/25 02:37:26;;;;;;;2.67;1.03;;;;;;;0.48;94.78;99955.06;5011966;28;20882;-81
2023/11/25 02:39:53;;;;;;;5.47;1.00;;;;;;;0.49;95.04;99962.00;5009040;28;20672;-81
2023/11/25 02:42:21;;;;;;;4.43;1.10;;;;;;;0.51;95.02;99954.97;5007882;28;20210;-82
2023/11/25 02:44:47;;;;;;;6.40;1.13;;;;;;;0.50;95.12;99961.09;5011422;28;20215;-81
2023/11/25 02:47:14;;;;;;;3.87;1.10;;;;;;;0.50;95.11;99962.88;5011670;28;20700;-81
2023/11/25 02:49:40;;;;;;;3.83;1.43;;;;;;;0.51;95.44;99967.19;5009085;28;20207;-82
2023/11/25 02:52:07;;;;;;;7.40;1.17;;;;;;;0.52;95.25;99961.06;5007367;28;20226;-82
2023/11/25 02:54:34;;;;;;;5.53;1.03;;;;;;;0.51;95.68;99960.19;5009442;28;20230;-81
2023/11/25 02:57:00;;;;;;;2.73;1.07;;;;;;;0.53;95.60;99968.00;5003284;28;20231;-81
2023/11/25 02:59:28;;;;;;;4.00;1.03;;;;;;;0.53;96.08;99968.88;5008315;28;20199;-81
2023/11/25 03:01:55;;;;;;;3.37;1.00;;;;;;;0.51;96.03;99969.81;5012929;28;20211;-81
2023/11/25 03:04:23;;;;;;;3.27;1.00;;;;;;;0.51;96.29;99964.59;5006574;28;20277;-82
2023/11/25 03:06:51;;;;;;;5.27;0.97;;;;;;;0.54;96.67;99964.44;5008034;28;20217;-81
2023/11/25 03:09:17;;;;;;;3.70;1.10;;;;;;;0.54;96.34;99967.94;5009005;28;20302;-82
2023/11/25 03:11:44;;;;;;;8.20;1.37;;;;;;;0.57;96.80;99972.22;5008491;28;20218;-82
2023/11/25 03:14:10;;;;;;;5.23;1.17;;;;;;;0.58;96.03;99968.69;5007224;28;20289;-81
2023/11/25 03:16:38;;;;;;;6.30;1.00;;;;;;;0.60;96.17;99972.13;5006752;28;20293;-83
2023/11/25 03:19:06;;;;;;;7.03;1.00;;;;;;;0.64;96.68;99973.75;5009452;28;20203;-82
2023/11/25 03:21:33;;;;;;;3.37;0.80;;;;;;;0.65;96.31;99957.97;5009178;28;20218;-82
2023/11/25 03:24:00;;;;;;;5.47;1.33;;;;;;;0.67;97.03;99961.41;5008716;28;20306;-81
2023/11/25 03:26:28;;;;;;;3.40;0.87;;;;;;;0.69;96.74;99954.34;5011171;28;20195;-82
2023/11/25 03:28:54;;;;;;;3.60;1.20;;;;;;;0.72;96.43;99953.34;5008238;28;20238;-82
2023/11/25 03:31:22;;;;;;;5.47;1.30;;;;;;;0.75;96.08;99961.13;5008843;28;20810;-82
2023/11/25 03:33:50;;;;;;;4.33;1.23;;;;;;;0.76;96.73;99959.34;5006576;28;20230;-82
2023/11/25 03:36:17;;;;;;;7.67;1.50;;;;;;;0.80;96.00;99953.09;5010169;28;20210;-82
2023/11/25 03:38:43;;;;;;;5.40;1.27;;;;;;;0.82;96.22;99941.66;5007978;28;20233;-82
2023/11/25 03:41:10;;;;;;;5.37;1.30;;;;;;;0.84;96.04;99946.84;5007935;28;20203;-80
2023/11/25 03:43:36;;;;;;;2.40;1.20;;;;;;;0.83;95.91;99947.75;5011580;28;20644;-82
2023/11/25 03:46:04;;;;;;;4.80;1.10;;;;;;;0.84;96.08;99946.84;5013139;28;21149;-82
2023/11/25 03:48:32;;;;;;;4.13;1.10;;;;;;;0.89;95.83;99952.78;5013333;28;20219;-81
2023/11/25 03:51:00;;;;;;;8.77;1.23;;;;;;;0.90;96.54;99942.22;5008250;28;20585;-80
2023/11/25 03:53:27;;;;;;;3.93;1.27;;;;;;;0.93;97.29;99943.88;5009767;28;20199;-82
2023/11/25 03:55:54;;;;;;;4.17;1.27;;;;;;;0.95;97.92;99932.44;5013316;28;20647;-82
2023/11/25 03:58:20;;;;;;;6.97;1.47;;;;;;;0.97;98.20;99942.88;5010198;28;20234;-82
2023/11/25 04:00:47;;;;;;;9.03;1.53;;;;;;;1.04;98.42;99944.38;5012303;28;20302;-82
2023/11/25 04:03:13;;;;;;;5.70;1.40;;;;;;;1.06;99.47;99929.47;5008822;28;20210;-82
2023/11/25 04:05:40;;;;;;;5.17;1.70;;;;;;;1.05;99.79;99940.84;5011985;28;20218;-82
2023/11/25 04:08:07;;;;;;;6.10;1.70;;;;;;;1.07;100.00;99946.91;5010883;28;20263;-81
2023/11/25 04:10:34;;;;;;;6.47;1.67;;;;;;;1.06;100.00;99942.56;5010334;28;20669;-82
2023/11/25 04:13:00;;;;;;;7.90;1.67;;;;;;;1.07;100.00;99946.91;5010983;28;20651;-82
2023/11/25 04:15:27;;;;;;;5.83;1.57;;;;;;;1.10;100.00;99944.16;5011850;28;20229;-81
2023/11/25 04:17:53;;;;;;;3.80;1.60;;;;;;;1.12;100.00;99937.09;5008516;28;20250;-81
2023/11/25 04:20:27;;;;;;;4.57;1.70;;;;;;;1.16;100.00;99928.19;5009680;28;20213;-81
2023/11/25 04:22:55;;;;;;;5.63;1.60;;;;;;;1.22;100.00;99932.38;5011198;28;20195;-82
2023/11/25 04:25:26;;;;;;;5.20;1.40;;;;;;;1.21;100.00;99925.41;5007313;28;20693;-82
2023/11/25 04:27:52;;;;;;;6.50;1.40;;;;;;;1.19;100.00;99930.72;5007904;28;20285;-81
2023/11/25 04:30:19;;;;;;;4.97;1.03;;;;;;;1.20;99.91;99923.69;5012379;28;20207;-82
2023/11/25 04:32:47;;;;;;;10.70;1.30;;;;;;;1.21;99.16;99928.91;5010345;28;20227;-82
2023/11/25 04:35:14;;;;;;;6.40;2.13;;;;;;;1.20;99.23;99927.19;5011240;28;20203;-80
2023/11/25 04:37:43;;;;;;;7.27;1.40;;;;;;;1.21;99.11;99915.78;5007901;28;20242;-82
2023/11/25 04:40:11;;;;;;;4.73;1.30;;;;;;;1.20;99.44;99910.59;5014777;28;20343;-81
2023/11/25 04:42:39;;;;;;;7.40;1.33;;;;;;;1.20;98.99;99900.97;5009202;28;20208;-80
2023/11/25 04:45:14;;;;;;;5.10;1.13;;;;;;;1.22;99.55;99900.91;5010196;28;20211;-81
2023/11/25 04:47:41;;;;;;;3.67;1.10;;;;;;;1.28;99.67;99898.03;5011268;28;20226;-81
2023/11/25 04:50:08;;;;;;;5.17;1.10;;;;;;;1.28;100.00;99898.03;5007542;28;20207;-81
2023/11/25 04:52:35;;;;;;;6.67;1.93;;;;;;;1.32;99.87;99891.75;5009496;28;20227;-81
2023/11/25 04:55:03;;;;;;;6.07;1.37;;;;;;;1.35;100.00;99895.13;5007332;28;20213;-81
2023/11/25 04:57:30;;;;;;;5.20;1.60;;;;;;;1.37;100.00;99880.19;5010681;28;20615;-79
2023/11/25 04:59:57;;;;;;;5.93;2.00;;;;;;;1.40;100.00;99868.72;5010296;28;20214;-81
2023/11/25 05:02:24;;;;;;;11.10;1.70;;;;;;;1.37;100.00;99868.84;5011555;28;20206;-81
2023/11/25 05:04:51;;;;;;;4.97;1.37;;;;;;;1.40;100.00;99868.72;5007429;28;20208;-80
2023/11/25 05:07:17;;;;;;;7.20;2.30;;;;;;;1.43;100.00;99865.13;5007570;28;20257;-80
2023/11/25 05:09:44;;;;;;;7.07;1.87;;;;;;;1.44;100.00;99866.81;5009084;28;20211;-81
2023/11/25 05:12:10;;;;;;;6.33;2.30;;;;;;;1.47;100.00;99864.06;5005823;28;20230;-81
2023/11/25 05:14:37;;;;;;;11.70;3.17;;;;;;;1.44;100.00;99867.66;5005347;28;20226;-81
2023/11/25 05:17:05;;;;;;;7.97;2.30;;;;;;;1.47;100.00;99874.56;5010370;28;20229;-81
2023/11/25 05:19:32;;;;;;;4.93;2.43;;;;;;;1.45;100.00;99877.25;5007193;28;20210;-81
2023/11/25 05:21:58;;;;;;;5.97;2.83;;;;;;;1.43;100.00;99873.88;5011393;28;20751;-81
2023/11/25 05:24:25;;;;;;;8.73;2.80;;;;;;;1.45;100.00;99874.63;5011183;28;20586;-82
2023/11/25 05:26:51;;;;;;;5.83;2.70;;;;;;;1.45;100.00;99879.88;5008179;28;20217;-82
2023/11/25 05:29:18;;;;;;;8.43;2.73;;;;;;;1.46;100.00;99875.50;5008552;28;20215;-82
2023/11/25 05:31:44;;;;;;;7.90;3.10;;;;;;;1.47;100.00;99877.19;5010889;28;20234;-81
2023/11/25 05:34:13;;;;;;;7.10;3.00;;;;;;;1.45;100.00;99871.16;5012828;28;20225;-81
2023/11/25 05:36:40;;;;;;;3.10;2.13;;;;;;;1.46;100.00;99871.09;5008192;28;20214;-81
2023/11/25 05:39:07;;;;;;;8.07;3.13;;;;;;;1.49;100.00;99867.50;5007977;28;20211;-81
2023/11/25 05:41:35;;;;;;;5.53;3.47;;;;;;;1.50;100.00;99863.97;5008683;28;20206;-81
2023/11/25 05:44:06;;;;;;;6.03;3.27;;;;;;;1.49;100.00;99850.00;5008148;28;20583;-81
2023/11/25 05:46:33;;;;;;;6.93;3.50;;;;;;;1.48;100.00;99857.91;5011200;28;20258;-81
2023/11/25 05:49:00;;;;;;;7.67;3.67;;;;;;;1.49;100.00;99851.75;5008038;28;20231;-81
2023/11/25 05:51:34;;;;;;;10.33;3.63;;;;;;;1.48;100.00;99845.66;5005400;28;20253;-81
2023/11/25 05:54:00;;;;;;;11.10;3.97;;;;;;;1.51;100.00;99850.78;5009270;28;20218;-80
2023/11/25 05:56:27;;;;;;;6.90;3.70;;;;;;;1.52;100.00;99854.28;5010719;28;20550;-81
2023/11/25 05:58:53;;;;;;;4.67;3.30;;;;;;;1.55;100.00;99852.38;5007290;28;20218;-81
2023/11/25 06:01:21;;;;;;;6.43;3.70;;;;;;;1.54;100.00;99861.16;5006481;28;20215;-80
2023/11/25 06:03:50;;;;;;;8.60;3.73;;;;;;;1.55;100.00;99856.78;5008226;28;20211;-80
2023/11/25 06:06:18;;;;;;;8.83;3.60;;;;;;;1.58;100.00;99856.66;5003096;28;20580;-80
2023/11/25 06:08:46;;;;;;;7.83;4.37;;;;;;;1.59;100.00;99859.22;5006740;28;20224;-81
2023/11/25 06:11:19;;;;;;;6.70;4.23;;;;;;;1.62;100.00;99858.22;5006219;28;20234;-80
2023/11/25 06:13:46;;;;;;;8.13;3.73;;;;;;;1.65;100.00;99855.50;5009442;28;20289;-80
2023/11/25 06:16:12;;;;;;;6.93;3.70;;;;;;;1.65;100.00;99847.63;5003320;28;20207;-80
2023/11/25 06:18:39;;;;;;;6.50;3.73;;;;;;;1.66;100.00;99849.31;5011929;28;20230;-80
2023/11/25 06:21:05;;;;;;;8.20;3.73;;;;;;;1.67;100.00;99844.03;5013749;28;20203;-81
2023/11/25 06:23:32;;;;;;;6.00;3.13;;;;;;;1.72;100.00;99847.31;5005905;28;20218;-81
2023/11/25 06:26:00;;;;;;;5.77;3.20;;;;;;;1.72;100.00;99849.09;5006772;28;20680;-81
2023/11/25 06:28:28;;;;;;;8.77;4.03;;;;;;;1.76;100.00;99850.69;5006133;28;20230;-81
2023/11/25 06:30:55;;;;;;;6.50;3.80;;;;;;;1.75;100.00;99848.97;5001739;28;20213;-81
2023/11/25 06:33:24;;;;;;;7.83;3.63;;;;;;;1.79;100.00;99847.09;5006811;28;20226;-81
2023/11/25 06:35:50;;;;;;;7.33;3.00;;;;;;;1.81;100.00;99843.47;5005423;28;20627;-81
2023/11/25 06:38:17;;;;;;;6.90;3.23;;;;;;;1.81;100.00;99838.22;5009350;28;20234;-82
2023/11/25 06:40:44;;;;;;;5.63;2.70;;;;;;;1.82;100.00;99839.91;5004612;28;20243;-81
2023/11/25 06:43:12;;;;;;;8.13;3.17;;;;;;;1.81;100.00;99825.06;5002575;28;20605;-81
2023/11/25 06:45:40;;;;;;;8.77;3.37;;;;;;;1.83;100.00;99823.25;5006805;28;20203;-81
2023/11/25 06:48:07;;;;;;;7.87;3.53;;;;;;;1.84;100.00;99826.72;5009095;28;20697;-81
2023/11/25 06:50:34;;;;;;;10.33;4.10;;;;;;;1.87;100.00;99826.59;5006904;28;20292;-81
2023/11/25 06:53:00;;;;;;;7.73;3.60;;;;;;;1.85;100.00;99817.94;5007575;28;20707;-82
2023/11/25 06:55:27;;;;;;;8.53;3.33;;;;;;;1.83;100.00;99818.00;5005185;28;20199;-81
2023/11/25 06:57:54;;;;;;;6.97;3.10;;;;;;;1.84;100.00;99822.34;5008016;28;20249;-81
2023/11/25 07:00:22;;;;;;;7.17;2.73;;;;;;;1.87;100.00;99823.97;5004244;28;20245;-82
2023/11/25 07:02:49;;;;;;;6.67;2.97;;;;;;;1.89;100.00;99827.41;5006999;28;20207;-82
2023/11/25 07:05:15;;;;;;;8.93;3.20;;;;;;;1.91;100.00;99836.06;5004631;28;20198;-82
2023/11/25 07:07:42;;;;;;;6.17;3.10;;;;;;;1.90;100.00;99858.00;5007401;28;20277;-81
2023/11/25 07:10:10;;;;;;;7.53;4.03;;;;;;;1.92;100.00;99861.41;5007142;28;20202;-82
2023/11/25 07:12:36;;;;;;;8.87;3.53;;;;;;;1.95;100.00;99843.78;5007289;28;20225;-83
2023/11/25 07:15:04;;;;;;;11.00;3.47;;;;;;;1.99;100.00;99842.72;5006358;28;20754;-83
2023/11/25 07:17:32;;;;;;;7.63;2.73;;;;;;;2.03;100.00;99832.94;5004665;28;20244;-82
2023/11/25 07:19:59;;;;;;;6.20;3.00;;;;;;;2.04;100.00;99835.50;5001663;28;20661;-82
2023/11/25 07:22:25;;;;;;;7.03;3.03;;;;;;;2.06;100.00;99828.41;5004654;28;20294;-82
2023/11/25 07:24:52;;;;;;;7.87;3.30;;;;;;;2.09;100.00;99830.06;5009903;28;20222;-82
2023/11/25 07:27:19;;;;;;;7.07;2.90;;;;;;;2.09;100.00;99836.16;5007060;28;20589;-81
2023/11/25 07:29:45;;;;;;;6.07;3.10;;;;;;;2.10;100.00;99834.41;5003075;28;20249;-82
2023/11/25 07:32:13;;;;;;;5.73;2.87;;;;;;;2.13;100.00;99829.03;5005519;28;20235;-81
2023/11/25 07:34:40;;;;;;;8.47;2.90;;;;;;;2.16;100.00;99830.63;5010596;28;20253;-82
2023/11/25 07:37:08;;;;;;;6.57;2.50;;;;;;;2.16;100.00;99820.13;5008199;28;20713;-81
2023/11/25 07:39:35;;;;;;;7.10;2.73;;;;;;;2.18;100.00;99815.69;5009098;28;20230;-82
2023/11/25 07:42:02;;;;;;;10.80;3.10;;;;;;;2.17;100.00;99812.19;5012728;28;20211;-83
2023/11/25 07:44:30;;;;;;;5.43;2.80;;;;;;;2.17;100.00;99813.97;5012483;28;20230;-83
2023/11/25 07:46:56;;;;;;;6.37;2.57;;;;;;;2.17;100.00;99796.44;5014729;28;20238;-84
2023/11/25 07:49:23;;;;;;;5.53;3.50;;;;;;;2.18;100.00;99808.66;5021777;28;20210;-83
2023/11/25 07:51:51;;;;;;;7.97;2.80;;;;;;;2.19;100.00;99799.84;5024726;28;20302;-83
2023/11/25 07:54:18;;;;;;;8.10;3.43;;;;;;;2.20;100.00;99795.44;5013663;28;20207;-84
2023/11/25 07:56:44;;;;;;;8.07;4.00;;;;;;;2.20;100.00;99798.06;5015161;28;20210;-84
2023/11/25 07:59:10;;;;;;;10.50;4.83;;;;;;;2.20;100.00;99785.81;5014676;28;20230;-82
2023/11/25 08:01:37;;;;;;;10.97;4.40;;;;;;;2.20;100.00;99787.56;5013857;28;20203;-84
2023/11/25 08:04:04;;;;;;;6.93;3.50;;;;;;;2.19;100.00;99793.75;5017644;28;20222;-84
2023/11/25 08:06:31;;;;;;;8.10;3.10;;;;;;;2.19;100.00;99791.97;5010540;28;20221;-83
2023/11/25 08:09:00;;;;;;;5.90;3.70;;;;;;;2.17;100.00;99791.19;5008036;28;20477;-84
2023/11/25 08:11:28;;;;;;;7.17;3.03;;;;;;;2.20;100.00;99788.44;5010589;28;20207;-83
2023/11/25 08:13:55;;;;;;;3.87;2.40;;;;;;;2.20;100.00;99784.94;5007811;28;20231;-82
2023/11/25 08:16:22;;;;;;;5.20;2.60;;;;;;;2.19;100.00;99791.13;5004435;28;20208;-83
2023/11/25 08:18:48;;;;;;;4.10;2.20;;;;;;;2.16;100.00;99786.84;5011177;28;20227;-84
2023/11/25 08:21:15;;;;;;;4.67;1.90;;;;;;;2.12;100.00;99785.28;5006239;28;20199;-84
2023/11/25 08:23:42;;;;;;;4.70;2.30;;;;;;;2.09;100.00;99785.41;5012410;28;20203;-83
2023/11/25 08:26:19;;;;;;;4.33;2.47;;;;;;;2.03;100.00;99781.25;5012144;28;20207;-82
2023/11/25 08:28:46;;;;;;;4.97;2.50;;;;;;;2.04;100.00;99777.72;5011737;28;20238;-83
2023/11/25 08:31:12;;;;;;;3.33;2.03;;;;;;;2.00;100.00;99770.03;5009229;28;20211;-82
2023/11/25 08:33:40;;;;;;;4.07;1.80;;;;;;;2.00;100.00;99770.88;5016830;28;20712;-82
2023/11/25 08:36:08;;;;;;;2.87;1.60;;;;;;;1.98;100.00;99772.72;5014221;28;20210;-81
2023/11/25 08:38:34;;;;;;;3.03;1.80;;;;;;;1.99;100.00;99778.81;5009941;28;20219;-82
2023/11/25 08:41:01;;;;;;;2.80;1.40;;;;;;;1.98;100.00;99785.00;5009865;28;20215;-82
2023/11/25 08:43:29;;;;;;;6.33;2.23;;;;;;;1.95;100.00;99787.78;5018430;28;20225;-81
2023/11/25 08:45:55;;;;;;;4.13;1.73;;;;;;;1.97;100.00;99788.56;5011621;28;20217;-80
2023/11/25 08:48:23;;;;;;;3.17;1.67;;;;;;;1.94;100.00;99778.19;5011524;28;20607;-82
2023/11/25 08:50:49;;;;;;;4.00;1.70;;;;;;;1.97;100.00;99775.44;5009034;28;20207;-81
2023/11/25 08:53:16;;;;;;;4.57;2.40;;;;;;;2.00;100.00;99781.38;5015345;28;20219;-82
2023/11/25 08:55:42;;;;;;;4.63;2.23;;;;;;;2.02;100.00;99774.31;5009610;28;20207;-82
2023/11/25 08:58:09;;;;;;;3.50;1.70;;;;;;;2.08;100.00;99773.19;5011941;28;20231;-82
2023/11/25 09:00:37;;;;;;;4.30;2.30;;;;;;;2.12;100.00;99766.06;5010522;28;20214;-83
2023/11/25 09:03:07;;;;;;;5.17;3.00;;;;;;;2.16;100.00;99767.59;5012377;28;20219;-81
2023/11/25 09:05:36;;;;;;;5.33;2.40;;;;;;;2.21;100.00;99774.38;5011935;28;20207;-82
2023/11/25 09:08:06;;;;;;;3.47;1.70;;;;;;;2.25;100.00;99775.97;5006385;28;20223;-84
2023/11/25 09:10:36;;;;;;;5.70;1.83;;;;;;;2.30;100.00;99781.03;5010572;28;20199;-82
2023/11/25 09:13:03;;;;;;;2.70;1.70;;;;;;;2.37;100.00;99779.81;5014330;28;20223;-81
2023/11/25 09:15:30;;;;;;;3.77;1.80;;;;;;;2.38;100.00;99782.38;5012046;28;20203;-80
2023/11/25 09:17:58;;;;;;;2.77;1.57;;;;;;;2.42;100.00;99791.00;5011914;28;20226;-83
2023/11/25 09:20:25;;;;;;;3.73;1.70;;;;;;;2.43;100.00;99796.19;5008630;28;20207;-82
2023/11/25 09:22:52;;;;;;;2.60;1.80;;;;;;;2.49;100.00;99795.06;5010537;28;20206;-81
2023/11/25 09:25:19;;;;;;;2.67;1.50;;;;;;;2.53;100.00;99807.13;5009126;28;20269;-81
2023/11/25 09:27:46;;;;;;;3.57;1.50;;;;;;;2.63;100.00;99804.97;5010107;28;20613;-80
2023/11/25 09:30:14;;;;;;;5.00;1.90;;;;;;;2.67;100.00;99804.75;5011373;28;20210;-83
2023/11/25 09:32:42;;;;;;;2.57;1.40;;;;;;;2.69;100.00;99800.25;5009627;28;20234;-81
2023/11/25 09:35:11;;;;;;;2.23;0.97;;;;;;;2.76;100.00;99792.97;5011232;28;20290;-81
2023/11/25 09:37:38;;;;;;;2.23;1.20;;;;;;;2.78;100.00;99796.38;5002908;28;20786;-80
2023/11/25 09:40:06;;;;;;;2.23;0.90;;;;;;;2.83;100.00;99798.81;5005177;28;20219;-81
2023/11/25 09:42:33;;;;;;;4.03;0.93;;;;;;;2.91;100.00;99794.03;5010198;28;20222;-80
2023/11/25 09:45:00;;;;;;;3.50;1.07;;;;;;;2.95;100.00;99798.25;5005960;28;20218;-80
2023/11/25 09:47:27;;;;;;;2.23;0.80;;;;;;;2.98;100.00;99798.97;5004289;28;20226;-80
2023/11/25 09:49:54;;;;;;;2.60;0.67;;;;;;;3.02;100.00;99799.69;5005232;28;20264;-81
2023/11/25 09:52:28;;;;;;;2.00;0.50;;;;;;;3.05;100.00;99795.13;5010237;28;20233;-80
2023/11/25 09:54:56;;;;;;;0.80;0.60;;;;;;;3.09;100.00;99798.47;5007870;28;20207;-81
2023/11/25 09:57:32;;;;;;;7.40;3.40;;;;;;;3.11;100.00;99794.84;5002642;28;20234;-81
2023/11/25 09:59:58;;;;;;;10.73;6.07;;;;;;;3.16;100.00;99797.25;5005874;28;20211;-80
2023/11/25 10:02:26;;;;;;;5.77;2.90;;;;;;;3.18;100.00;99779.63;5009427;28;20207;-81
2023/11/25 10:04:56;;;;;;;3.87;2.20;;;;;;;3.23;100.00;99788.13;5007465;28;20203;-82
2023/11/25 10:07:23;;;;;;;2.80;1.30;;;;;;;3.25;100.00;99781.03;5008036;28;20227;-83
2023/11/25 10:09:50;;;;;;;1.80;1.13;;;;;;;3.26;100.00;99789.78;5006816;28;20207;-81
2023/11/25 10:12:18;;;;;;;1.20;0.87;;;;;;;3.27;100.00;99787.06;5010806;28;20207;-82
2023/11/25 10:14:46;;;;;;;2.93;1.60;;;;;;;3.32;100.00;99792.13;5008353;28;20232;-81
2023/11/25 10:17:20;;;;;;;2.27;1.50;;;;;;;3.37;100.00;99791.00;5009923;28;20231;-84
2023/11/25 10:19:47;;;;;;;2.00;1.10;;;;;;;3.35;100.00;99777.06;5007455;28;20620;-81
2023/11/25 10:22:14;;;;;;;2.00;1.43;;;;;;;3.36;100.00;99789.28;5011452;28;20269;-79
2023/11/25 10:24:49;;;;;;;1.20;1.03;;;;;;;3.36;100.00;99783.19;5015305;28;20205;-81
2023/11/25 10:30:28;;;;;;;;;;;;;;;;;;;;;
2023/11/25 10:33:01;;;;;;;1.27;0.80;;;;;;;3.39;100.00;99788.28;5015599;28;20235;-80
2023/11/25 10:38:08;;;;;;;2.30;1.50;;;;;;;3.39;100.00;99793.56;5021653;28;20245;-79
2023/11/25 10:40:41;;;;;;;1.53;0.97;;;;;;;3.40;100.00;99784.75;5017414;28;20797;-79
2023/11/25 10:43:11;;;;;;;2.07;1.33;;;;;;;3.41;100.00;99787.28;5017790;28;20274;-79
2023/11/25 10:45:38;;;;;;;2.47;1.20;;;;;;;3.44;100.00;99786.28;5016168;28;20187;-79
2023/11/25 10:48:07;;;;;;;2.30;1.50;;;;;;;3.46;100.00;99787.91;5018666;28;20223;-79
2023/11/25 10:50:34;;;;;;;2.97;1.80;;;;;;;3.47;100.00;99787.00;5007132;28;20210;-79
2023/11/25 10:53:04;;;;;;;2.73;1.23;;;;;;;3.49;100.00;99785.13;5016449;28;20222;-82
2023/11/25 10:55:32;;;;;;;1.97;1.07;;;;;;;3.51;100.00;99777.16;5014921;28;20675;-81
2023/11/25 10:58:02;;;;;;;1.60;0.93;;;;;;;3.56;100.00;99787.47;5016220;28;20253;-82
2023/11/25 11:00:31;;;;;;;2.17;0.90;;;;;;;3.56;100.00;99784.84;5015937;28;20206;-81
2023/11/25 11:03:01;;;;;;;2.17;1.17;;;;;;;3.61;100.00;99777.56;5011758;28;20231;-82
2023/11/25 11:05:36;;;;;;;3.00;1.73;;;;;;;3.61;100.00;99761.75;5003440;28;20203;-80
2023/11/25 11:08:08;;;;;;;1.93;1.40;;;;;;;3.66;100.00;99759.75;5009170;28;20473;-82
2023/11/25 11:10:42;;;;;;;2.90;1.53;;;;;;;3.65;100.00;99766.81;5010580;28;20207;-83
2023/11/25 11:13:12;;;;;;;3.97;1.63;;;;;;;3.71;100.00;99760.41;5009533;28;20227;-81
2023/11/25 11:15:41;;;;;;;4.10;2.43;;;;;;;3.73;100.00;99771.72;5008787;28;20221;-81
2023/11/25 11:18:16;;;;;;;3.07;2.30;;;;;;;3.73;100.00;99761.19;5011719;28;20295;-81
2023/11/25 11:20:49;;;;;;;3.23;1.83;;;;;;;3.75;100.00;99760.19;5011312;28;20246;-80
2023/11/25 11:23:19;;;;;;;5.10;4.30;;;;;;;3.76;100.00;99761.84;5016413;28;20671;-82
2023/11/25 11:25:55;;;;;;;7.43;6.63;;;;;;;3.82;100.00;99755.44;5011766;28;20226;-83
2023/11/25 11:28:35;;;;;;;6.63;5.73;;;;;;;3.84;100.00;99761.50;5016638;28;20234;-82
2023/11/25 11:31:46;;;;;;;17.20;15.53;;;;;;;3.86;100.00;99756.16;5011690;28;20194;-81
2023/11/25 11:34:12;;;;;;;3.33;1.67;;;;;;;3.88;100.00;99757.78;5011809;28;20225;-82
2023/11/25 11:36:40;;;;;;;2.33;0.97;;;;;;;3.88;100.00;99764.84;5010539;28;20213;-82
2023/11/25 11:39:11;;;;;;;3.30;1.40;;;;;;;3.91;100.00;99767.31;5014555;28;20223;-83
2023/11/25 11:41:39;;;;;;;2.10;1.00;;;;;;;3.94;100.00;99769.81;5008191;28;20200;-82
2023/11/25 11:44:09;;;;;;;1.80;1.20;;;;;;;3.95;100.00;99767.06;5014863;28;20210;-81